Time;durP1;ratioP1;P1;durP2;ratioP2;P2;SDS_P1;SDS_P2;PMS_P1;PMS_P2;Temp;Humidity;BMP_temperature;BMP_pressure;BME280_temperature;BME280_humidity;BME280_pressure;Samples;Min_cycle;Max_cycle;Signal;HPM_P1;HPM_P2
2022/01/21 00:00:34;;;;;;;;;;;;;;;1.84;100.00;103417.56;5080208;28;19920;-79
2022/01/21 00:03:04;;;;;;;;;;;;;;;1.88;100.00;103424.00;5081128;28;19920;-80
2022/01/21 00:05:29;;;;;;;;;;;;;;;2.18;100.00;103421.34;5080515;28;19927;-80
2022/01/21 00:07:54;;;;;;;;;;;;;;;2.20;100.00;103419.81;5082015;28;19920;-80
2022/01/21 00:10:20;;;;;;;;;;;;;;;2.15;100.00;103392.41;5083058;28;19920;-81
2022/01/21 00:12:47;;;;;;;;;;;;;;;1.98;100.00;103414.81;5101566;28;20348;-81
2022/01/21 00:15:12;;;;;;;;;;;;;;;1.85;100.00;103400.28;5082171;28;19920;-81
2022/01/21 00:17:38;;;;;;;;;;;;;;;1.71;100.00;103404.88;5080851;28;19920;-81
2022/01/21 00:31:21;;;;;;;;;;;;;;;1.13;100.00;103417.31;5097992;28;19923;-81
2022/01/21 00:33:46;;;;;;;;;;;;;;;0.99;100.00;103417.41;5078634;28;19928;-81
2022/01/21 00:36:14;;;;;;;;;;;;;;;0.98;100.00;103421.69;5078875;28;19927;-80
2022/01/21 00:38:42;;;;;;;;;;;;;;;0.90;100.00;103417.25;5079738;28;19979;-80
2022/01/21 00:41:08;;;;;;;;;;;;;;;0.82;100.00;103420.63;5079042;28;19938;-80
2022/01/21 00:43:43;;;;;;;;;;;;;;;0.76;100.00;103425.09;5078833;28;19950;-81
2022/01/21 00:46:09;;;;;;;;;;;;;;;0.73;100.00;103415.31;5079543;28;19993;-81
2022/01/21 00:48:34;;;;;;;;;;;;;;;0.71;100.00;103420.34;5079333;28;20363;-81
2022/01/21 00:50:59;;;;;;;;;;;;;;;0.65;100.00;103419.63;5079499;28;19962;-81
2022/01/21 00:53:27;;;;;;;;;;;;;;;0.62;100.00;103411.47;5096165;28;20374;-81
2022/01/21 00:55:52;;;;;;;;;;;;;;;0.65;100.00;103429.03;5078447;28;19920;-81
2022/01/21 00:58:17;;;;;;;;;;;;;;;0.62;100.00;103421.84;5078421;28;19924;-81
2022/01/21 01:00:42;;;;;;;;;;;;;;;0.65;100.00;103423.84;5078519;28;19920;-81
2022/01/21 01:03:09;;;;;;;;;;;;;;;0.66;100.00;103423.13;5077808;28;20015;-81
2022/01/21 01:05:34;;;;;;;;;;;;;;;0.75;100.00;103423.28;5075143;28;20294;-81
2022/01/21 01:08:01;;;;;;;;;;;;;;;0.77;100.00;103420.09;5078302;28;20054;-81
2022/01/21 01:10:58;;;;;;;;;;;;;;;0.75;100.00;103421.59;5061794;28;19981;-81
2022/01/21 01:21:49;;;;;;;;;;;;;;;0.62;100.00;103408.88;5096723;28;19972;-81
2022/01/21 01:29:42;;;;;;;;;;;;;;;0.57;100.00;103409.06;5096290;28;20287;-81
2022/01/21 01:32:08;;;;;;;;;;;;;;;0.55;100.00;103403.72;5078108;28;20002;-81
2022/01/21 01:34:33;;;;;;;;;;;;;;;0.56;100.00;103397.78;5078101;28;19920;-81
2022/01/21 01:37:03;;;;;;;;;;;;;;;0.63;100.00;103394.22;5078294;28;19986;-80
2022/01/21 01:42:52;;;;;;;;;;;;;;;0.81;100.00;103400.63;5064754;28;20322;-81
2022/01/21 01:50:42;;;;;;;;;;;;;;;1.12;100.00;103398.97;5056574;28;19972;-81
2022/01/21 01:53:15;;;;;;;;;;;;;;;1.17;100.00;103398.78;5055314;28;20331;-81
2022/01/21 01:55:40;;;;;;;;;;;;;;;1.07;100.00;103399.41;5038748;28;19921;-79
2022/01/21 01:58:06;;;;;;;;;;;;;;;1.12;100.00;103394.72;5075797;28;19930;-80
2022/01/21 02:00:31;;;;;;;;;;;;;;;1.04;100.00;103406.81;5078049;28;19916;-80
2022/01/21 02:03:06;;;;;;;;;;;;;;;1.21;100.00;103397.44;5079440;28;19994;-79
2022/01/21 02:05:32;;;;;;;;;;;;;;;1.27;100.00;103403.34;5078661;28;19927;-80
2022/01/21 02:07:57;;;;;;;;;;;;;;;1.30;100.00;103400.19;5096446;28;19920;-80
2022/01/21 02:10:22;;;;;;;;;;;;;;;1.24;100.00;103397.78;5078957;28;19920;-80
2022/01/21 02:12:50;;;;;;;;;;;;;;;1.22;100.00;103409.69;5078708;28;19916;-81
2022/01/21 02:15:15;;;;;;;;;;;;;;;1.18;100.00;103407.47;5078024;28;19963;-81
2022/01/21 02:22:51;;;;;;;;;;;;;;;1.02;100.00;103416.09;5095577;28;20625;-80
2022/01/21 02:25:20;;;;;;;;;;;;;;;0.98;100.00;103423.34;5077900;28;19920;-80
2022/01/21 02:27:48;;;;;;;;;;;;;;;0.93;100.00;103421.88;5077979;28;19920;-80
2022/01/21 02:30:18;;;;;;;;;;;;;;;0.88;100.00;103423.94;5078459;28;19920;-80
2022/01/21 02:32:47;;;;;;;;;;;;;;;0.83;100.00;103423.41;5096901;28;19927;-80
2022/01/21 02:35:13;;;;;;;;;;;;;;;0.74;100.00;103418.84;5075665;28;19960;-81
2022/01/21 02:37:39;;;;;;;;;;;;;;;0.65;100.00;103413.47;5079046;28;19936;-82
2022/01/21 02:40:05;;;;;;;;;;;;;;;0.59;100.00;103411.13;5079023;28;19920;-80
2022/01/21 02:42:35;;;;;;;;;;;;;;;0.64;100.00;103406.47;5077230;28;20538;-80
2022/01/21 02:45:01;;;;;;;;;;;;;;;0.65;100.00;103413.47;5078078;28;20376;-80
2022/01/21 02:47:27;;;;;;;;;;;;;;;0.63;100.00;103417.56;5077791;28;19920;-80
2022/01/21 02:49:53;;;;;;;;;;;;;;;0.69;100.00;103419.22;5077524;28;19931;-80
2022/01/21 02:52:23;;;;;;;;;;;;;;;0.63;100.00;103423.66;5078051;28;20382;-81
2022/01/21 02:54:48;;;;;;;;;;;;;;;0.61;100.00;103408.69;5077918;28;20003;-80
2022/01/21 02:57:13;;;;;;;;;;;;;;;0.62;100.00;103403.69;5078187;28;19955;-80
2022/01/21 02:59:39;;;;;;;;;;;;;;;0.56;100.00;103397.78;5077542;28;19972;-81
2022/01/21 03:02:14;;;;;;;;;;;;;;;0.50;100.00;103407.44;5061871;28;19924;-80
2022/01/21 03:04:59;;;;;;;;;;;;;;;0.44;100.00;103401.53;5077787;28;19920;-80
2022/01/21 03:07:25;;;;;;;;;;;;;;;0.42;100.00;103408.19;5077489;28;19920;-81
2022/01/21 03:09:50;;;;;;;;;;;;;;;0.33;100.00;103403.78;5076871;28;19931;-79
2022/01/21 03:12:17;;;;;;;;;;;;;;;0.33;100.00;103406.38;5076890;28;19976;-80
2022/01/21 03:14:42;;;;;;;;;;;;;;;0.28;100.00;103398.78;5077538;28;19920;-80
2022/01/21 03:17:08;;;;;;;;;;;;;;;0.20;100.00;103403.06;5077992;28;19927;-80
2022/01/21 03:19:33;;;;;;;;;;;;;;;0.20;100.00;103400.47;5078454;28;19920;-82
2022/01/21 03:22:02;;;;;;;;;;;;;;;0.24;100.00;103399.19;5085680;28;19978;-81
2022/01/21 03:24:27;;;;;;;;;;;;;;;0.26;100.00;103400.28;5077785;28;20007;-80
2022/01/21 03:26:53;;;;;;;;;;;;;;;0.39;100.00;103410.41;5077832;28;19966;-81
2022/01/21 03:29:18;;;;;;;;;;;;;;;0.39;100.00;103407.81;5077115;28;19924;-81
2022/01/21 03:31:43;;;;;;;;;;;;;;;0.38;100.00;103406.00;5077852;28;20393;-81
2022/01/21 03:34:08;;;;;;;;;;;;;;;0.32;100.00;103404.50;5078299;28;19920;-82
2022/01/21 03:36:35;;;;;;;;;;;;;;;0.23;100.00;103395.63;5080418;28;20005;-82
2022/01/21 03:39:02;;;;;;;;;;;;;;;0.20;100.00;103402.13;5099166;28;19920;-80
2022/01/21 03:41:28;;;;;;;;;;;;;;;0.20;100.00;103407.31;5099118;28;19986;-79
2022/01/21 03:43:55;;;;;;;;;;;;;;;0.22;100.00;103406.78;5098239;28;19928;-82
2022/01/21 03:46:20;;;;;;;;;;;;;;;0.25;100.00;103409.72;5063321;28;20364;-80
2022/01/21 03:48:48;;;;;;;;;;;;;;;0.20;100.00;103416.00;5079914;28;19974;-79
2022/01/21 03:51:18;;;;;;;;;;;;;;;0.25;100.00;103420.09;5080722;28;20393;-80
2022/01/21 03:53:45;;;;;;;;;;;;;;;0.20;100.00;103426.38;5080549;28;19920;-81
2022/01/21 03:56:12;;;;;;;;;;;;;;;0.30;100.00;103429.31;5081330;28;19920;-80
2022/01/21 03:58:38;;;;;;;;;;;;;;;0.28;100.00;103430.81;5081625;28;19924;-80
2022/01/21 04:01:03;;;;;;;;;;;;;;;0.25;100.00;103422.69;5100523;28;20280;-80
2022/01/21 04:03:29;;;;;;;;;;;;;;;0.30;100.00;103431.91;5082167;28;19927;-80
2022/01/21 04:05:54;;;;;;;;;;;;;;;0.32;100.00;103432.09;5082354;28;19920;-80
2022/01/21 04:08:19;;;;;;;;;;;;;;;0.32;100.00;103438.19;5084086;28;19931;-80
2022/01/21 04:10:48;;;;;;;;;;;;;;;0.31;100.00;103432.84;5066846;28;20350;-79
2022/01/21 04:13:19;;;;;;;;;;;;;;;0.32;100.00;103427.84;5083333;28;19920;-80
2022/01/21 04:15:51;;;;;;;;;;;;;;;0.26;100.00;103421.91;5086471;28;19920;-81
2022/01/21 04:18:18;;;;;;;;;;;;;;;0.30;100.00;103428.41;5082806;28;19930;-79
2022/01/21 04:20:45;;;;;;;;;;;;;;;0.24;100.00;103428.59;5099020;28;20689;-80
2022/01/21 04:23:12;;;;;;;;;;;;;;;0.17;100.00;103421.78;5081456;28;19962;-79
2022/01/21 04:25:38;;;;;;;;;;;;;;;0.11;100.00;103422.69;5082040;28;19942;-79
2022/01/21 04:28:03;;;;;;;;;;;;;;;0.11;100.00;103418.44;5099059;28;19916;-79
2022/01/21 04:30:29;;;;;;;;;;;;;;;0.11;100.00;103417.50;5080370;28;20015;-79
2022/01/21 04:32:55;;;;;;;;;;;;;;;0.05;100.00;103424.53;5080576;28;20245;-79
2022/01/21 04:35:20;;;;;;;;;;;;;;;0.08;100.00;103425.84;5091264;28;19950;-80
2022/01/21 04:37:55;;;;;;;;;;;;;;;0.09;100.00;103426.78;5098638;28;20360;-80
2022/01/21 04:40:23;;;;;;;;;;;;;;;0.13;100.00;103429.91;5098457;28;19915;-80
2022/01/21 04:48:19;;;;;;;;;;;;;;;0.19;100.00;103434.91;5078048;28;20430;-81
2022/01/21 04:50:57;;;;;;;;;;;;;;;0.11;100.00;103438.22;5081646;28;19920;-81
2022/01/21 04:53:25;;;;;;;;;;;;;;;0.08;100.00;103428.44;5081571;28;20429;-81
2022/01/21 04:55:50;;;;;;;;;;;;;;;0.09;100.00;103434.53;5095446;28;19920;-81
2022/01/21 04:58:15;;;;;;;;;;;;;;;0.05;100.00;103429.72;5082358;28;20303;-81
2022/01/21 05:00:41;;;;;;;;;;;;;;;0.03;100.00;103426.94;5083294;28;19920;-81
2022/01/21 05:03:14;;;;;;;;;;;;;;;-0.01;100.00;103432.53;5079712;28;19926;-81
2022/01/21 05:05:40;;;;;;;;;;;;;;;-0.05;100.00;103436.44;5091054;28;19927;-81
2022/01/21 05:08:10;;;;;;;;;;;;;;;-0.07;100.00;103436.97;5117871;28;19920;-81
2022/01/21 05:10:37;;;;;;;;;;;;;;;-0.11;100.00;103427.91;5094622;28;19931;-82
2022/01/21 05:13:10;;;;;;;;;;;;;;;-0.14;100.00;103427.56;5077503;28;20345;-82
2022/01/21 05:16:00;;;;;;;;;;;;;;;-0.17;100.00;103421.06;5082403;28;19957;-82
2022/01/21 05:18:20;;;;;;;;;;;;;;;-0.18;100.00;103425.31;5116774;28;19920;-81
2022/01/21 05:20:45;;;;;;;;;;;;;;;-0.21;100.00;103418.09;5079111;28;19920;-81
2022/01/21 05:23:17;;;;;;;;;;;;;;;-0.25;100.00;103414.94;5081585;28;19973;-82
2022/01/21 05:25:42;;;;;;;;;;;;;;;-0.28;100.00;103414.56;5096488;28;19924;-82
2022/01/21 05:28:07;;;;;;;;;;;;;;;-0.29;100.00;103410.16;5075027;28;19928;-82
2022/01/21 05:30:33;;;;;;;;;;;;;;;-0.27;100.00;103412.19;5064944;28;19921;-82
2022/01/21 05:33:01;;;;;;;;;;;;;;;-0.32;100.00;103414.97;5078480;28;19978;-82
2022/01/21 05:35:26;;;;;;;;;;;;;;;-0.32;100.00;103410.69;5079930;28;19924;-82
2022/01/21 05:37:51;;;;;;;;;;;;;;;-0.28;100.00;103414.56;5078938;28;19927;-82
2022/01/21 05:40:18;;;;;;;;;;;;;;;-0.33;100.00;103414.03;5078492;28;19920;-82
2022/01/21 05:42:45;;;;;;;;;;;;;;;-0.24;100.00;103321.91;5097245;28;20347;-82
2022/01/21 05:47:54;;;;;;;;;;;;;;;0.10;100.00;103312.03;5087473;28;20357;-82
2022/01/21 05:50:19;;;;;;;;;;;;;;;0.14;100.00;103311.63;5076945;28;20015;-82
2022/01/21 05:52:51;;;;;;;;;;;;;;;0.20;100.00;103319.22;5058342;28;19928;-82
2022/01/21 05:55:17;;;;;;;;;;;;;;;0.33;100.00;103318.25;5058492;28;19931;-81
2022/01/21 05:57:42;;;;;;;;;;;;;;;0.53;100.00;103311.88;5057834;28;19920;-82
2022/01/21 06:00:09;;;;;;;;;;;;;;;0.62;100.00;103305.16;5058176;28;19928;-82
2022/01/21 06:02:37;;;;;;;;;;;;;;;0.82;100.00;103314.28;5058906;28;19944;-81
2022/01/21 06:05:03;;;;;;;;;;;;;;;0.91;100.00;103311.84;5061773;28;19921;-82
2022/01/21 06:07:28;;;;;;;;;;;;;;;1.13;100.00;103316.09;5056226;28;20249;-81
2022/01/21 06:09:53;;;;;;;;;;;;;;;1.33;100.00;103315.75;5076502;28;19921;-81
2022/01/21 06:12:34;;;;;;;;;;;;;;;1.45;100.00;103324.03;5076713;28;19927;-80
2022/01/21 06:14:59;;;;;;;;;;;;;;;1.55;100.00;103341.56;5077821;28;20002;-81
2022/01/21 06:17:24;;;;;;;;;;;;;;;1.61;100.00;103331.84;5076776;28;19958;-81
2022/01/21 06:19:50;;;;;;;;;;;;;;;1.50;100.00;103335.84;5094700;28;19916;-81
2022/01/21 06:22:16;;;;;;;;;;;;;;;1.55;100.00;103344.16;5072941;28;19931;-81
2022/01/21 06:24:42;;;;;;;;;;;;;;;1.55;100.00;103347.66;5071125;28;19927;-81
2022/01/21 06:27:07;;;;;;;;;;;;;;;1.58;100.00;103337.63;5075731;28;19920;-82
2022/01/21 06:29:32;;;;;;;;;;;;;;;1.53;100.00;103345.66;5076328;28;20002;-82
2022/01/21 06:31:57;;;;;;;;;;;;;;;1.53;100.00;103350.84;5076206;28;19920;-82
2022/01/21 06:34:23;;;;;;;;;;;;;;;1.59;100.00;103354.16;5055646;28;19927;-82
2022/01/21 06:36:48;;;;;;;;;;;;;;;1.66;100.00;103356.66;5055531;28;19931;-83
2022/01/21 06:39:13;;;;;;;;;;;;;;;1.71;100.00;103341.59;5073890;28;19920;-85
2022/01/21 06:41:40;;;;;;;;;;;;;;;1.69;100.00;103354.41;5056548;28;19943;-82
2022/01/21 06:44:06;;;;;;;;;;;;;;;1.72;100.00;103346.94;5054010;28;19924;-81
2022/01/21 06:46:35;;;;;;;;;;;;;;;1.76;100.00;103354.34;5056189;28;19921;-81
2022/01/21 06:49:00;;;;;;;;;;;;;;;1.78;100.00;103350.22;5062271;28;19924;-82
2022/01/21 06:51:26;;;;;;;;;;;;;;;1.83;100.00;103350.75;5087409;28;19924;-81
2022/01/21 06:54:01;;;;;;;;;;;;;;;1.73;100.00;103353.09;5055657;28;19920;-82
2022/01/21 06:56:26;;;;;;;;;;;;;;;1.69;100.00;103350.88;5055897;28;19931;-82
2022/01/21 06:58:52;;;;;;;;;;;;;;;1.71;100.00;103359.75;5073804;28;19920;-83
2022/01/21 07:01:17;;;;;;;;;;;;;;;1.72;100.00;103352.16;5076947;28;19952;-82
2022/01/21 07:03:44;;;;;;;;;;;;;;;1.67;100.00;103355.00;5099672;28;19920;-81
2022/01/21 07:06:11;;;;;;;;;;;;;;;1.65;100.00;103361.69;5076388;28;19920;-84
2022/01/21 07:08:36;;;;;;;;;;;;;;;1.61;100.00;103358.72;5061673;28;19925;-82
2022/01/21 07:11:01;;;;;;;;;;;;;;;1.66;100.00;103353.16;5050864;28;19931;-83
2022/01/21 07:13:27;;;;;;;;;;;;;;;1.51;100.00;103347.13;5065816;28;19928;-82
2022/01/21 07:15:52;;;;;;;;;;;;;;;1.45;100.00;103351.69;5067532;28;19920;-81
2022/01/21 07:18:17;;;;;;;;;;;;;;;1.36;100.00;103343.75;5070125;28;19924;-81
2022/01/21 07:20:43;;;;;;;;;;;;;;;1.25;100.00;103350.31;5059116;28;19924;-81
2022/01/21 07:23:12;;;;;;;;;;;;;;;1.11;100.00;103350.44;5073230;28;19924;-82
2022/01/21 07:25:37;;;;;;;;;;;;;;;1.03;100.00;103363.44;5076852;28;20279;-82
2022/01/21 07:28:04;;;;;;;;;;;;;;;0.93;100.00;103368.31;5072912;28;20011;-82
2022/01/21 07:30:30;;;;;;;;;;;;;;;0.83;100.00;103368.03;5068608;28;20437;-82
2022/01/21 07:32:57;;;;;;;;;;;;;;;0.80;100.00;103367.66;5072046;28;19924;-81
2022/01/21 07:35:27;;;;;;;;;;;;;;;0.75;100.00;103385.28;5097021;28;19924;-82
2022/01/21 07:37:53;;;;;;;;;;;;;;;0.76;100.00;103383.59;5096464;28;20665;-82
2022/01/21 07:40:19;;;;;;;;;;;;;;;0.75;100.00;103384.38;5095695;28;19931;-83
2022/01/21 07:42:44;;;;;;;;;;;;;;;0.70;100.00;103378.66;5092697;28;19967;-83
2022/01/21 07:45:10;;;;;;;;;;;;;;;0.71;100.00;103376.25;5075685;28;19943;-82
2022/01/21 07:47:35;;;;;;;;;;;;;;;0.56;100.00;103364.09;5077161;28;19925;-82
2022/01/21 07:50:00;;;;;;;;;;;;;;;0.61;100.00;103370.72;5076095;28;20006;-83
2022/01/21 07:52:27;;;;;;;;;;;;;;;0.55;100.00;103372.59;5076029;28;19927;-82
2022/01/21 07:54:52;;;;;;;;;;;;;;;0.49;100.00;103375.38;5103341;28;20270;-81
2022/01/21 07:57:17;;;;;;;;;;;;;;;0.49;100.00;103375.38;5083523;28;19950;-82
2022/01/21 07:59:43;;;;;;;;;;;;;;;0.52;100.00;103385.19;5084268;28;19920;-82
2022/01/21 08:02:10;;;;;;;;;;;;;;;0.52;100.00;103374.81;5085554;28;19920;-81
2022/01/21 08:04:35;;;;;;;;;;;;;;;0.56;100.00;103371.84;5075492;28;19924;-82
2022/01/21 08:07:01;;;;;;;;;;;;;;;0.70;100.00;103373.47;5075533;28;19970;-82
2022/01/21 08:09:26;;;;;;;;;;;;;;;0.83;100.00;103368.94;5085482;28;20007;-82
2022/01/21 08:11:53;;;;;;;;;;;;;;;0.86;100.00;103373.56;5076433;28;19921;-81
2022/01/21 08:14:19;;;;;;;;;;;;;;;1.00;100.00;103372.56;5087359;28;19927;-82
2022/01/21 08:16:45;;;;;;;;;;;;;;;1.16;100.00;103370.97;5075349;28;19920;-82
2022/01/21 08:19:11;;;;;;;;;;;;;;;1.31;100.00;103374.38;5077158;28;19921;-82
2022/01/21 08:21:36;;;;;;;;;;;;;;;1.49;100.00;103377.22;5093586;28;20364;-82
2022/01/21 08:24:14;;;;;;;;;;;;;;;1.57;100.00;103384.19;5095411;28;20019;-82
2022/01/21 08:26:40;;;;;;;;;;;;;;;1.56;100.00;103387.56;5094223;28;19989;-82
2022/01/21 08:29:05;;;;;;;;;;;;;;;1.50;100.00;103387.78;5089326;28;20046;-82
2022/01/21 08:31:32;;;;;;;;;;;;;;;1.42;100.00;103383.41;5091602;28;19962;-81
2022/01/21 08:33:59;;;;;;;;;;;;;;;1.49;100.00;103377.22;5038364;28;19924;-83
2022/01/21 08:36:25;;;;;;;;;;;;;;;1.47;100.00;103379.63;5038434;28;19921;-83
2022/01/21 08:38:50;;;;;;;;;;;;;;;1.58;100.00;103383.44;5038360;28;19927;-81
2022/01/21 08:41:16;;;;;;;;;;;;;;;1.70;100.00;103379.63;5037845;28;20388;-81
2022/01/21 08:43:44;;;;;;;;;;;;;;;1.92;100.00;103371.66;5038058;28;19921;-83
2022/01/21 08:46:10;;;;;;;;;;;;;;;2.15;100.00;103367.31;5041527;28;19920;-82
2022/01/21 08:48:35;;;;;;;;;;;;;;;2.32;100.00;103363.97;5047357;28;19956;-81
2022/01/21 08:51:03;;;;;;;;;;;;;;;2.53;100.00;103359.25;5082080;28;19969;-83
2022/01/21 08:53:38;;;;;;;;;;;;;;;2.63;100.00;103363.78;5049342;28;19917;-81
2022/01/21 08:56:14;;;;;;;;;;;;;;;2.67;100.00;103352.94;5054606;28;19955;-81
2022/01/21 08:58:40;;;;;;;;;;;;;;;2.81;100.00;103347.56;5034477;28;19921;-83
2022/01/21 09:01:05;;;;;;;;;;;;;;;3.00;100.00;103349.53;5036682;28;19921;-82
2022/01/21 09:03:31;;;;;;;;;;;;;;;3.09;100.00;103354.78;5054761;28;20624;-82
2022/01/21 09:05:57;;;;;;;;;;;;;;;3.29;100.00;103351.69;5052335;28;19924;-82
2022/01/21 09:08:23;;;;;;;;;;;;;;;3.53;100.00;103343.84;5057302;28;20365;-82
2022/01/21 09:10:49;;;;;;;;;;;;;;;3.58;100.00;103354.75;5075349;28;19928;-82
2022/01/21 09:13:22;;;;;;;;;;;;;;;3.68;100.00;103348.81;5074395;28;20041;-82
2022/01/21 09:15:48;;;;;;;;;;;;;;;3.79;100.00;103348.22;5077067;28;20001;-82
2022/01/21 09:18:18;;;;;;;;;;;;;;;3.97;100.00;103343.09;5077215;28;20348;-82
2022/01/21 09:20:43;;;;;;;;;;;;;;;4.08;100.00;103352.91;5077351;28;19970;-82
2022/01/21 09:23:09;;;;;;;;;;;;;;;4.16;100.00;103346.78;5093578;28;19924;-82
2022/01/21 09:25:34;;;;;;;;;;;;;;;4.19;100.00;103344.50;5076940;28;20003;-82
2022/01/21 09:28:01;;;;;;;;;;;;;;;4.24;100.00;103345.91;5095045;28;19973;-82
2022/01/21 09:30:26;;;;;;;;;;;;;;;4.31;100.00;103344.81;5095318;28;19981;-82
2022/01/21 09:32:56;;;;;;;;;;;;;;;4.43;100.00;103342.53;5076040;28;19920;-82
2022/01/21 09:35:22;;;;;;;;;;;;;;;4.58;100.00;103348.38;5077103;28;19920;-82
2022/01/21 09:37:48;;;;;;;;;;;;;;;4.63;100.00;103341.91;5073480;28;19921;-82
2022/01/21 09:40:13;;;;;;;;;;;;;;;4.66;100.00;103348.38;5060643;28;19920;-80
2022/01/21 09:42:45;;;;;;;;;;;;;;;4.63;100.00;103352.34;5073313;28;19928;-81
2022/01/21 09:45:13;;;;;;;;;;;;;;;4.68;100.00;103349.44;5074125;28;19920;-81
2022/01/21 09:47:46;;;;;;;;;;;;;;;4.83;100.00;103347.44;5073539;28;19951;-80
2022/01/21 09:50:12;;;;;;;;;;;;;;;4.86;100.00;103352.03;5077100;28;20395;-81
2022/01/21 09:52:43;;;;;;;;;;;;;;;4.91;100.00;103352.50;5093313;28;19920;-80
2022/01/21 09:55:08;;;;;;;;;;;;;;;4.83;100.00;103356.94;5073835;28;19928;-81
2022/01/21 09:57:34;;;;;;;;;;;;;;;4.84;100.00;103354.50;5073461;28;19920;-81
2022/01/21 10:00:00;;;;;;;;;;;;;;;4.78;100.00;103369.53;5077857;28;20393;-82
2022/01/21 10:02:28;;;;;;;;;;;;;;;4.85;100.00;103371.09;5075907;28;19980;-81
2022/01/21 10:04:56;;;;;;;;;;;;;;;4.82;100.00;103376.00;5074000;28;20061;-81
2022/01/21 10:07:22;;;;;;;;;;;;;;;4.86;100.00;103372.91;5074476;28;20364;-80
2022/01/21 10:09:48;;;;;;;;;;;;;;;4.99;100.00;103383.81;5076954;28;20348;-81
2022/01/21 10:12:18;;;;;;;;;;;;;;;5.15;100.00;103382.72;5077702;28;19959;-81
2022/01/21 10:14:43;;;;;;;;;;;;;;;5.29;100.00;103385.00;5073601;28;20369;-82
2022/01/21 10:17:09;;;;;;;;;;;;;;;5.46;100.00;103376.19;5073591;28;19927;-81
2022/01/21 10:19:35;;;;;;;;;;;;;;;5.46;100.00;103378.81;5075330;28;19920;-82
2022/01/21 10:22:03;;;;;;;;;;;;;;;5.43;100.00;103390.66;5075223;28;20442;-82
2022/01/21 10:24:29;;;;;;;;;;;;;;;5.51;100.00;103400.16;5076697;28;19920;-81
2022/01/21 10:26:56;;;;;;;;;;;;;;;5.58;100.00;103402.63;5078801;28;19927;-82
2022/01/21 10:29:21;;;;;;;;;;;;;;;5.73;100.00;103409.31;5078604;28;19927;-81
2022/01/21 10:32:06;;;;;;;;;;;;;;;5.67;100.00;103411.34;5079004;28;19920;-81
2022/01/21 10:34:40;;;;;;;;;;;;;;;5.76;100.00;103413.91;5062388;28;19920;-82
2022/01/21 10:37:24;;;;;;;;;;;;;;;5.76;100.00;103403.44;5080824;28;19927;-81
2022/01/21 10:40:09;;;;;;;;;;;;;;;5.85;100.00;103399.09;5066360;28;19920;-81
2022/01/21 10:42:35;;;;;;;;;;;;;;;5.92;100.00;103387.56;5056746;28;20379;-81
2022/01/21 10:45:01;;;;;;;;;;;;;;;5.83;100.00;103389.28;5071509;28;19920;-82
2022/01/21 10:47:30;;;;;;;;;;;;;;;5.77;100.00;103397.47;5090816;28;20001;-82
2022/01/21 10:49:57;;;;;;;;;;;;;;;5.76;100.00;103393.00;5061801;28;20011;-81
2022/01/21 10:52:40;;;;;;;;;;;;;;;5.77;100.00;103396.56;5055997;28;19923;-81
2022/01/21 10:55:24;;;;;;;;;;;;;;;5.73;100.00;103404.09;5063452;28;19920;-81
2022/01/21 10:58:02;;;;;;;;;;;;;;;5.80;100.00;103397.75;5064223;28;20030;-82
2022/01/21 11:00:27;;;;;;;;;;;;;;;5.83;100.00;103387.59;5056140;28;19928;-82
2022/01/21 11:02:54;;;;;;;;;;;;;;;5.88;100.00;103386.31;5075041;28;19924;-81
2022/01/21 11:05:20;;;;;;;;;;;;;;;5.88;100.00;103401.09;5056822;28;20002;-82
2022/01/21 11:07:52;;;;;;;;;;;;;;;5.84;100.00;103409.41;5056470;28;19959;-81
2022/01/21 11:10:42;;;;;;;;;;;;;;;5.90;100.00;103404.78;5063478;28;20315;-81
2022/01/21 11:13:20;;;;;;;;;;;;;;;5.82;100.00;103401.44;5068168;28;20015;-82
2022/01/21 11:15:55;;;;;;;;;;;;;;;5.81;100.00;103409.13;5086879;28;20319;-81
2022/01/21 11:18:22;;;;;;;;;;;;;;;5.93;100.00;103400.78;5052064;28;19927;-81
2022/01/21 11:20:49;;;;;;;;;;;;;;;5.93;100.00;103407.69;5055252;28;19925;-83
2022/01/21 11:23:20;;;;;;;;;;;;;;;5.98;100.00;103409.09;5056534;28;20261;-82
2022/01/21 11:25:47;;;;;;;;;;;;;;;6.03;100.00;103402.59;5056485;28;19925;-81
2022/01/21 11:28:14;;;;;;;;;;;;;;;6.08;100.00;103413.50;5056456;28;19921;-80
2022/01/21 11:30:40;;;;;;;;;;;;;;;6.23;100.00;103419.25;5055732;28;19959;-81
2022/01/21 11:33:06;;;;;;;;;;;;;;;6.24;100.00;103419.41;5072371;28;19920;-81
2022/01/21 11:35:31;;;;;;;;;;;;;;;6.16;100.00;103416.84;5096154;28;19920;-81
2022/01/21 11:38:04;;;;;;;;;;;;;;;6.13;100.00;103414.84;5075194;28;19920;-81
2022/01/21 11:40:29;;;;;;;;;;;;;;;6.09;100.00;103421.50;5075350;28;19976;-81
2022/01/21 11:43:00;;;;;;;;;;;;;;;6.16;100.00;103414.25;5076429;28;19920;-82
2022/01/21 11:45:43;;;;;;;;;;;;;;;6.28;100.00;103418.03;5093844;28;20364;-81
2022/01/21 11:50:41;;;;;;;;;;;;;;;6.52;100.00;103426.31;5095383;28;19952;-82
2022/01/21 11:53:07;;;;;;;;;;;;;;;6.50;100.00;103439.28;5075406;28;19974;-82
2022/01/21 11:55:33;;;;;;;;;;;;;;;6.37;100.00;103433.66;5076975;28;19920;-82
2022/01/21 11:58:18;;;;;;;;;;;;;;;6.09;100.00;103429.34;5107374;28;19927;-82
2022/01/21 12:00:47;;;;;;;;;;;;;;;5.96;100.00;103438.47;5083176;28;19916;-82
2022/01/21 12:03:13;;;;;;;;;;;;;;;6.01;100.00;103426.75;5096480;28;19920;-82
2022/01/21 12:05:38;;;;;;;;;;;;;;;6.03;100.00;103426.16;5098530;28;19931;-80
2022/01/21 12:08:04;;;;;;;;;;;;;;;6.14;100.00;103437.63;5087910;28;19916;-82
2022/01/21 12:10:31;;;;;;;;;;;;;;;6.12;100.00;103431.31;5078506;28;20372;-82
2022/01/21 12:13:03;;;;;;;;;;;;;;;6.11;100.00;103440.88;5079502;28;20433;-82
2022/01/21 12:15:35;;;;;;;;;;;;;;;6.04;100.00;103437.53;5078814;28;19920;-83
2022/01/21 12:18:21;;;;;;;;;;;;;;;6.02;100.00;103429.53;5080712;28;19920;-90
2022/01/21 12:20:47;;;;;;;;;;;;;;;5.96;100.00;103423.66;5088538;28;20296;-83
2022/01/21 12:23:21;;;;;;;;;;;;;;;5.97;100.00;103417.72;5095998;28;19927;-83
2022/01/21 12:26:05;;;;;;;;;;;;;;;6.04;100.00;103419.22;5086668;28;20011;-83
2022/01/21 12:28:30;;;;;;;;;;;;;;;6.15;100.00;103430.69;5091888;28;19920;-82
2022/01/21 12:30:55;;;;;;;;;;;;;;;6.33;100.00;103427.22;5097289;28;20283;-82
2022/01/21 12:33:43;;;;;;;;;;;;;;;6.53;100.00;103417.72;5098600;28;19920;-83
2022/01/21 12:36:10;;;;;;;;;;;;;;;6.67;100.00;103408.53;5075430;28;19920;-83
2022/01/21 12:41:04;;;;;;;;;;;;;;;6.41;100.00;103410.53;5077041;28;19920;-84
2022/01/21 12:43:40;;;;;;;;;;;;;;;6.36;100.00;103416.13;5059095;28;19943;-83
2022/01/21 12:46:07;;;;;;;;;;;;;;;6.42;100.00;103409.75;5077099;28;19921;-83
2022/01/21 12:48:36;;;;;;;;;;;;;;;6.36;100.00;103409.19;5058156;28;19926;-83
2022/01/21 12:51:32;;;;;;;;;;;;;;;6.37;100.00;103407.47;5062364;28;19920;-81
2022/01/21 12:56:44;;;;;;;;;;;;;;;6.34;100.00;103402.91;5096195;28;19927;-82
2022/01/21 12:59:23;;;;;;;;;;;;;;;6.32;100.00;103396.56;5077423;28;19920;-82
2022/01/21 13:02:05;;;;;;;;;;;;;;;6.27;100.00;103385.69;5058621;28;20007;-82
2022/01/21 13:04:51;;;;;;;;;;;;;;;6.20;100.00;103392.81;5048945;28;20361;-82
2022/01/21 13:07:39;;;;;;;;;;;;;;;6.20;100.00;103387.56;5037818;28;19931;-82
2022/01/21 13:10:07;;;;;;;;;;;;;;;6.06;100.00;103379.34;5056499;28;20009;-82
2022/01/21 13:15:38;;;;;;;;;;;;;;;5.68;100.00;103387.03;5089069;28;19951;-83
2022/01/21 13:18:07;;;;;;;;;;;;;;;5.66;100.00;103391.19;5078732;28;19920;-81
2022/01/21 13:20:34;;;;;;;;;;;;;;;5.64;100.00;103390.13;5096195;28;19923;-82
2022/01/21 13:23:05;;;;;;;;;;;;;;;5.62;100.00;103393.38;5038203;28;19956;-84
2022/01/21 13:25:32;;;;;;;;;;;;;;;5.61;100.00;103392.44;5037548;28;19970;-81
2022/01/21 13:27:59;;;;;;;;;;;;;;;5.51;100.00;103392.31;5037778;28;19999;-83
2022/01/21 13:30:27;;;;;;;;;;;;;;;5.43;100.00;103388.06;5056261;28;19990;-81
2022/01/21 13:33:15;;;;;;;;;;;;;;;5.35;100.00;103382.06;5086572;28;20003;-80
2022/01/21 13:35:44;;;;;;;;;;;;;;;5.39;100.00;103385.13;5081527;28;19963;-81
2022/01/21 13:38:09;;;;;;;;;;;;;;;5.40;100.00;103389.56;5076163;28;20364;-81